sensor_id;sensor_type;location;lat;lon;timestamp;temperature;humidity
997;DHT22;487;50.126;8.698;2023-12-20T00:01:17;5.60;1.00
997;DHT22;487;50.126;8.698;2023-12-20T00:06:15;5.70;1.00
997;DHT22;487;50.126;8.698;2023-12-20T00:08:43;5.70;1.00
997;DHT22;487;50.126;8.698;2023-12-20T00:11:11;5.70;1.00
997;DHT22;487;50.126;8.698;2023-12-20T00:18:36;5.70;1.00
997;DHT22;487;50.126;8.698;2023-12-20T00:21:05;5.80;1.00
997;DHT22;487;50.126;8.698;2023-12-20T00:23:33;5.80;1.00
997;DHT22;487;50.126;8.698;2023-12-20T00:26:01;5.80;1.00
997;DHT22;487;50.126;8.698;2023-12-20T00:28:29;5.80;1.00
997;DHT22;487;50.126;8.698;2023-12-20T00:30:56;5.90;1.00
997;DHT22;487;50.126;8.698;2023-12-20T00:33:24;5.90;1.00
997;DHT22;487;50.126;8.698;2023-12-20T00:35:52;6.00;1.00
997;DHT22;487;50.126;8.698;2023-12-20T00:38:22;5.90;1.00
997;DHT22;487;50.126;8.698;2023-12-20T00:40:49;3.20;1.00
997;DHT22;487;50.126;8.698;2023-12-20T00:43:17;5.80;1.00
997;DHT22;487;50.126;8.698;2023-12-20T00:45:45;5.80;1.00
997;DHT22;487;50.126;8.698;2023-12-20T00:48:13;5.90;1.00
997;DHT22;487;50.126;8.698;2023-12-20T00:50:41;5.90;1.00
997;DHT22;487;50.126;8.698;2023-12-20T01:00:35;5.70;1.00
997;DHT22;487;50.126;8.698;2023-12-20T01:03:03;5.70;1.00
997;DHT22;487;50.126;8.698;2023-12-20T01:05:32;5.70;1.00
997;DHT22;487;50.126;8.698;2023-12-20T01:07:59;5.70;1.00
997;DHT22;487;50.126;8.698;2023-12-20T01:10:29;5.70;1.00
997;DHT22;487;50.126;8.698;2023-12-20T01:12:58;5.80;1.00
997;DHT22;487;50.126;8.698;2023-12-20T01:15:26;5.80;1.00
997;DHT22;487;50.126;8.698;2023-12-20T01:17:54;5.70;1.00
997;DHT22;487;50.126;8.698;2023-12-20T01:20:23;5.70;1.00
997;DHT22;487;50.126;8.698;2023-12-20T01:22:52;5.70;1.00
997;DHT22;487;50.126;8.698;2023-12-20T01:25:20;5.70;1.00
997;DHT22;487;50.126;8.698;2023-12-20T01:27:48;5.70;1.00
997;DHT22;487;50.126;8.698;2023-12-20T01:30:17;5.70;1.00
997;DHT22;487;50.126;8.698;2023-12-20T01:32:45;5.70;1.00
997;DHT22;487;50.126;8.698;2023-12-20T01:35:13;5.80;1.00
997;DHT22;487;50.126;8.698;2023-12-20T01:37:41;5.80;1.00
997;DHT22;487;50.126;8.698;2023-12-20T01:42:38;5.80;1.00
997;DHT22;487;50.126;8.698;2023-12-20T01:45:07;5.70;1.00
997;DHT22;487;50.126;8.698;2023-12-20T01:47:36;5.70;1.00
997;DHT22;487;50.126;8.698;2023-12-20T01:50:06;5.70;1.00
997;DHT22;487;50.126;8.698;2023-12-20T01:52:35;5.70;1.00
997;DHT22;487;50.126;8.698;2023-12-20T01:55:04;5.70;1.00
997;DHT22;487;50.126;8.698;2023-12-20T01:57:40;5.70;1.00
997;DHT22;487;50.126;8.698;2023-12-20T02:00:10;5.60;1.00
997;DHT22;487;50.126;8.698;2023-12-20T02:02:40;5.60;1.00
997;DHT22;487;50.126;8.698;2023-12-20T02:05:09;5.60;1.00
997;DHT22;487;50.126;8.698;2023-12-20T02:07:37;5.60;1.00
997;DHT22;487;50.126;8.698;2023-12-20T02:10:05;5.60;1.00
997;DHT22;487;50.126;8.698;2023-12-20T02:12:33;5.60;1.00
997;DHT22;487;50.126;8.698;2023-12-20T02:15:01;5.60;1.00
997;DHT22;487;50.126;8.698;2023-12-20T02:17:30;5.60;1.00
997;DHT22;487;50.126;8.698;2023-12-20T02:20:00;5.50;1.00
997;DHT22;487;50.126;8.698;2023-12-20T02:22:29;5.60;1.00
997;DHT22;487;50.126;8.698;2023-12-20T02:24:57;5.50;1.00
997;DHT22;487;50.126;8.698;2023-12-20T02:27:25;5.60;1.00
997;DHT22;487;50.126;8.698;2023-12-20T02:29:53;5.60;1.00
997;DHT22;487;50.126;8.698;2023-12-20T02:32:22;5.60;1.00
997;DHT22;487;50.126;8.698;2023-12-20T02:34:54;5.50;1.00
997;DHT22;487;50.126;8.698;2023-12-20T02:37:22;5.60;1.00
997;DHT22;487;50.126;8.698;2023-12-20T02:39:51;5.60;1.00
997;DHT22;487;50.126;8.698;2023-12-20T02:42:19;5.70;1.00
997;DHT22;487;50.126;8.698;2023-12-20T02:44:47;5.70;1.00
997;DHT22;487;50.126;8.698;2023-12-20T02:47:15;5.60;1.00
997;DHT22;487;50.126;8.698;2023-12-20T02:49:42;5.70;1.00
997;DHT22;487;50.126;8.698;2023-12-20T02:52:10;5.80;1.00
997;DHT22;487;50.126;8.698;2023-12-20T02:57:08;5.80;1.00
997;DHT22;487;50.126;8.698;2023-12-20T02:59:35;5.90;1.00
997;DHT22;487;50.126;8.698;2023-12-20T03:02:03;5.90;1.00
997;DHT22;487;50.126;8.698;2023-12-20T03:04:31;5.90;1.00
997;DHT22;487;50.126;8.698;2023-12-20T03:06:59;5.90;1.00
997;DHT22;487;50.126;8.698;2023-12-20T03:09:27;5.90;1.00
997;DHT22;487;50.126;8.698;2023-12-20T03:12:04;5.90;1.00
997;DHT22;487;50.126;8.698;2023-12-20T03:14:33;5.90;1.00
997;DHT22;487;50.126;8.698;2023-12-20T03:17:01;5.90;1.00
997;DHT22;487;50.126;8.698;2023-12-20T03:19:29;5.90;1.00
997;DHT22;487;50.126;8.698;2023-12-20T03:21:57;6.00;1.00
997;DHT22;487;50.126;8.698;2023-12-20T03:24:27;6.00;1.00
997;DHT22;487;50.126;8.698;2023-12-20T03:26:55;5.90;1.00
997;DHT22;487;50.126;8.698;2023-12-20T03:29:23;5.90;1.00
997;DHT22;487;50.126;8.698;2023-12-20T03:31:52;6.00;1.00
997;DHT22;487;50.126;8.698;2023-12-20T03:34:20;5.90;1.00
997;DHT22;487;50.126;8.698;2023-12-20T03:36:48;5.90;1.00
997;DHT22;487;50.126;8.698;2023-12-20T03:39:16;5.90;1.00
997;DHT22;487;50.126;8.698;2023-12-20T03:41:44;6.00;1.00
997;DHT22;487;50.126;8.698;2023-12-20T03:44:12;5.90;1.00
997;DHT22;487;50.126;8.698;2023-12-20T03:46:39;5.90;1.00
997;DHT22;487;50.126;8.698;2023-12-20T03:49:09;5.90;1.00
997;DHT22;487;50.126;8.698;2023-12-20T03:51:36;5.80;1.00
997;DHT22;487;50.126;8.698;2023-12-20T03:54:05;5.80;1.00
997;DHT22;487;50.126;8.698;2023-12-20T03:56:33;5.80;1.00
997;DHT22;487;50.126;8.698;2023-12-20T03:59:00;5.90;1.00
997;DHT22;487;50.126;8.698;2023-12-20T04:01:28;5.90;1.00
997;DHT22;487;50.126;8.698;2023-12-20T04:06:26;5.90;1.00
997;DHT22;487;50.126;8.698;2023-12-20T04:08:54;5.90;1.00
997;DHT22;487;50.126;8.698;2023-12-20T04:11:22;5.90;1.00
997;DHT22;487;50.126;8.698;2023-12-20T04:13:50;5.90;1.00
997;DHT22;487;50.126;8.698;2023-12-20T04:16:18;5.90;1.00
997;DHT22;487;50.126;8.698;2023-12-20T04:18:46;5.80;1.00
997;DHT22;487;50.126;8.698;2023-12-20T04:21:14;5.80;1.00
997;DHT22;487;50.126;8.698;2023-12-20T04:43:49;6.10;1.00
997;DHT22;487;50.126;8.698;2023-12-20T04:46:17;6.10;1.00
997;DHT22;487;50.126;8.698;2023-12-20T04:48:45;6.00;1.00
997;DHT22;487;50.126;8.698;2023-12-20T04:51:13;6.00;1.00
997;DHT22;487;50.126;8.698;2023-12-20T04:53:41;6.00;1.00
997;DHT22;487;50.126;8.698;2023-12-20T04:58:39;6.10;1.00
997;DHT22;487;50.126;8.698;2023-12-20T05:01:08;6.10;1.00
997;DHT22;487;50.126;8.698;2023-12-20T05:03:36;6.10;1.00
997;DHT22;487;50.126;8.698;2023-12-20T05:06:04;6.20;1.00
997;DHT22;487;50.126;8.698;2023-12-20T05:08:32;6.20;1.00
997;DHT22;487;50.126;8.698;2023-12-20T05:11:00;6.30;1.00
997;DHT22;487;50.126;8.698;2023-12-20T05:23:48;6.40;1.00
997;DHT22;487;50.126;8.698;2023-12-20T05:28:45;6.40;1.00
997;DHT22;487;50.126;8.698;2023-12-20T05:33:41;6.40;1.00
997;DHT22;487;50.126;8.698;2023-12-20T05:36:09;6.30;1.00
997;DHT22;487;50.126;8.698;2023-12-20T05:38:40;6.30;1.00
997;DHT22;487;50.126;8.698;2023-12-20T05:41:08;6.30;1.00
997;DHT22;487;50.126;8.698;2023-12-20T05:43:35;6.30;1.00
997;DHT22;487;50.126;8.698;2023-12-20T05:46:05;6.30;1.00
997;DHT22;487;50.126;8.698;2023-12-20T05:51:01;6.40;1.00
997;DHT22;487;50.126;8.698;2023-12-20T05:53:29;6.50;1.00
997;DHT22;487;50.126;8.698;2023-12-20T05:55:56;6.50;99.90
997;DHT22;487;50.126;8.698;2023-12-20T05:58:24;6.50;99.90
997;DHT22;487;50.126;8.698;2023-12-20T06:00:52;6.60;99.90
997;DHT22;487;50.126;8.698;2023-12-20T06:03:22;6.60;99.90
997;DHT22;487;50.126;8.698;2023-12-20T06:08:25;6.60;99.90
997;DHT22;487;50.126;8.698;2023-12-20T06:10:53;6.60;99.90
997;DHT22;487;50.126;8.698;2023-12-20T06:13:21;6.70;99.90
997;DHT22;487;50.126;8.698;2023-12-20T06:18:17;6.80;99.90
997;DHT22;487;50.126;8.698;2023-12-20T06:20:47;6.80;99.90
997;DHT22;487;50.126;8.698;2023-12-20T06:25:43;6.80;99.90
997;DHT22;487;50.126;8.698;2023-12-20T06:28:11;6.80;99.90
997;DHT22;487;50.126;8.698;2023-12-20T06:30:41;6.70;99.90
997;DHT22;487;50.126;8.698;2023-12-20T06:35:38;6.60;99.90
997;DHT22;487;50.126;8.698;2023-12-20T06:38:07;6.60;99.90
997;DHT22;487;50.126;8.698;2023-12-20T06:40:36;6.50;99.90
997;DHT22;487;50.126;8.698;2023-12-20T06:43:04;6.50;99.90
997;DHT22;487;50.126;8.698;2023-12-20T06:45:46;6.50;99.90
997;DHT22;487;50.126;8.698;2023-12-20T06:50:42;6.50;99.90
997;DHT22;487;50.126;8.698;2023-12-20T06:58:08;6.40;99.90
997;DHT22;487;50.126;8.698;2023-12-20T07:03:04;6.30;99.90
997;DHT22;487;50.126;8.698;2023-12-20T07:08:00;6.30;99.90
997;DHT22;487;50.126;8.698;2023-12-20T07:10:30;6.30;99.90
997;DHT22;487;50.126;8.698;2023-12-20T07:12:57;6.40;99.90
997;DHT22;487;50.126;8.698;2023-12-20T07:15:26;6.40;99.90
997;DHT22;487;50.126;8.698;2023-12-20T07:17:56;6.40;99.90
997;DHT22;487;50.126;8.698;2023-12-20T07:20:24;6.40;99.90
997;DHT22;487;50.126;8.698;2023-12-20T07:22:52;6.30;99.90
997;DHT22;487;50.126;8.698;2023-12-20T07:25:19;6.40;99.90
997;DHT22;487;50.126;8.698;2023-12-20T07:27:49;6.30;99.90
997;DHT22;487;50.126;8.698;2023-12-20T07:30:17;6.30;99.90
997;DHT22;487;50.126;8.698;2023-12-20T07:32:45;6.30;99.90
997;DHT22;487;50.126;8.698;2023-12-20T07:35:14;6.30;99.90
997;DHT22;487;50.126;8.698;2023-12-20T07:37:43;6.20;99.90
997;DHT22;487;50.126;8.698;2023-12-20T07:40:11;6.20;99.90
997;DHT22;487;50.126;8.698;2023-12-20T07:42:39;6.10;99.90
997;DHT22;487;50.126;8.698;2023-12-20T07:45:09;6.20;99.90
997;DHT22;487;50.126;8.698;2023-12-20T07:47:38;6.10;99.90
997;DHT22;487;50.126;8.698;2023-12-20T07:50:07;6.10;99.90
997;DHT22;487;50.126;8.698;2023-12-20T07:52:35;6.10;99.90
997;DHT22;487;50.126;8.698;2023-12-20T07:55:04;6.10;99.90
997;DHT22;487;50.126;8.698;2023-12-20T07:57:32;6.00;99.90
997;DHT22;487;50.126;8.698;2023-12-20T07:59:59;6.00;99.90
997;DHT22;487;50.126;8.698;2023-12-20T08:02:29;5.90;99.90
997;DHT22;487;50.126;8.698;2023-12-20T08:04:56;5.90;99.90
997;DHT22;487;50.126;8.698;2023-12-20T08:09:53;6.00;99.90
997;DHT22;487;50.126;8.698;2023-12-20T08:12:21;6.00;99.90
997;DHT22;487;50.126;8.698;2023-12-20T08:17:17;6.00;99.90
997;DHT22;487;50.126;8.698;2023-12-20T08:19:47;6.00;99.90
997;DHT22;487;50.126;8.698;2023-12-20T08:22:15;6.00;99.90
997;DHT22;487;50.126;8.698;2023-12-20T08:24:43;6.00;99.90
997;DHT22;487;50.126;8.698;2023-12-20T08:27:11;6.10;99.90
997;DHT22;487;50.126;8.698;2023-12-20T08:32:07;6.00;99.90
997;DHT22;487;50.126;8.698;2023-12-20T08:37:05;6.00;99.90
997;DHT22;487;50.126;8.698;2023-12-20T08:39:33;6.00;99.90
997;DHT22;487;50.126;8.698;2023-12-20T08:42:01;6.00;99.90
997;DHT22;487;50.126;8.698;2023-12-20T08:44:29;6.00;99.90
997;DHT22;487;50.126;8.698;2023-12-20T08:49:24;6.10;99.90
997;DHT22;487;50.126;8.698;2023-12-20T08:51:53;6.10;99.90
997;DHT22;487;50.126;8.698;2023-12-20T08:54:22;6.10;99.90
997;DHT22;487;50.126;8.698;2023-12-20T08:56:50;6.10;99.90
997;DHT22;487;50.126;8.698;2023-12-20T08:59:18;6.10;99.90
997;DHT22;487;50.126;8.698;2023-12-20T09:06:43;6.10;99.90
997;DHT22;487;50.126;8.698;2023-12-20T09:09:11;6.10;99.90
997;DHT22;487;50.126;8.698;2023-12-20T09:11:42;6.10;99.90
997;DHT22;487;50.126;8.698;2023-12-20T09:16:40;6.20;99.90
997;DHT22;487;50.126;8.698;2023-12-20T09:21:37;6.20;99.90
997;DHT22;487;50.126;8.698;2023-12-20T09:24:05;6.20;99.90
997;DHT22;487;50.126;8.698;2023-12-20T09:29:02;6.30;99.90
997;DHT22;487;50.126;8.698;2023-12-20T09:31:30;6.20;99.90
997;DHT22;487;50.126;8.698;2023-12-20T09:36:27;6.30;99.90
997;DHT22;487;50.126;8.698;2023-12-20T09:38:55;6.40;99.90
997;DHT22;487;50.126;8.698;2023-12-20T09:41:24;6.50;99.90
997;DHT22;487;50.126;8.698;2023-12-20T09:43:54;6.50;99.90
997;DHT22;487;50.126;8.698;2023-12-20T09:46:27;6.50;99.90
997;DHT22;487;50.126;8.698;2023-12-20T09:48:57;6.50;99.90
997;DHT22;487;50.126;8.698;2023-12-20T09:51:26;6.50;99.90
997;DHT22;487;50.126;8.698;2023-12-20T09:53:57;6.50;99.90
997;DHT22;487;50.126;8.698;2023-12-20T09:56:25;6.60;99.90
997;DHT22;487;50.126;8.698;2023-12-20T09:58:53;6.60;99.90
997;DHT22;487;50.126;8.698;2023-12-20T10:01:21;6.60;99.90
997;DHT22;487;50.126;8.698;2023-12-20T10:03:54;6.70;99.90
997;DHT22;487;50.126;8.698;2023-12-20T10:06:22;6.70;99.90
997;DHT22;487;50.126;8.698;2023-12-20T10:08:50;6.70;99.90
997;DHT22;487;50.126;8.698;2023-12-20T10:13:48;6.90;99.90
997;DHT22;487;50.126;8.698;2023-12-20T10:16:16;6.90;99.90
997;DHT22;487;50.126;8.698;2023-12-20T10:18:45;6.90;99.90
997;DHT22;487;50.126;8.698;2023-12-20T10:21:14;7.00;99.90
997;DHT22;487;50.126;8.698;2023-12-20T10:26:19;7.00;99.90
997;DHT22;487;50.126;8.698;2023-12-20T10:28:50;7.00;99.90
997;DHT22;487;50.126;8.698;2023-12-20T10:31:27;7.00;99.90
997;DHT22;487;50.126;8.698;2023-12-20T10:33:57;7.10;99.90
997;DHT22;487;50.126;8.698;2023-12-20T10:36:27;7.10;99.90
997;DHT22;487;50.126;8.698;2023-12-20T10:38:56;7.20;99.90
997;DHT22;487;50.126;8.698;2023-12-20T10:41:27;7.30;99.90
997;DHT22;487;50.126;8.698;2023-12-20T10:43:58;7.30;99.90
997;DHT22;487;50.126;8.698;2023-12-20T10:46:27;7.40;99.90
997;DHT22;487;50.126;8.698;2023-12-20T10:53:56;7.60;99.90
997;DHT22;487;50.126;8.698;2023-12-20T10:56:24;7.70;99.90
997;DHT22;487;50.126;8.698;2023-12-20T10:58:52;7.80;99.90
997;DHT22;487;50.126;8.698;2023-12-20T11:01:20;7.80;99.90
997;DHT22;487;50.126;8.698;2023-12-20T11:03:49;7.80;99.90
997;DHT22;487;50.126;8.698;2023-12-20T11:06:28;7.90;99.90
997;DHT22;487;50.126;8.698;2023-12-20T11:09:06;7.90;99.90
997;DHT22;487;50.126;8.698;2023-12-20T11:14:15;7.90;99.90
997;DHT22;487;50.126;8.698;2023-12-20T11:16:44;8.00;99.90
997;DHT22;487;50.126;8.698;2023-12-20T11:19:21;8.00;99.90
997;DHT22;487;50.126;8.698;2023-12-20T11:21:49;8.10;99.90
997;DHT22;487;50.126;8.698;2023-12-20T11:24:23;8.20;99.90
997;DHT22;487;50.126;8.698;2023-12-20T11:26:55;8.20;99.90
997;DHT22;487;50.126;8.698;2023-12-20T11:32:00;8.30;99.90
997;DHT22;487;50.126;8.698;2023-12-20T11:34:31;8.30;99.90
997;DHT22;487;50.126;8.698;2023-12-20T11:37:00;8.20;99.90
997;DHT22;487;50.126;8.698;2023-12-20T11:39:31;8.30;99.90
997;DHT22;487;50.126;8.698;2023-12-20T11:42:04;8.30;99.90
997;DHT22;487;50.126;8.698;2023-12-20T11:44:33;8.20;99.90
997;DHT22;487;50.126;8.698;2023-12-20T11:47:01;8.20;99.90
997;DHT22;487;50.126;8.698;2023-12-20T11:49:29;8.30;99.90
997;DHT22;487;50.126;8.698;2023-12-20T11:51:57;8.30;99.90
997;DHT22;487;50.126;8.698;2023-12-20T11:54:31;8.30;99.90
997;DHT22;487;50.126;8.698;2023-12-20T11:56:59;8.30;99.90
997;DHT22;487;50.126;8.698;2023-12-20T12:06:57;8.30;99.90
997;DHT22;487;50.126;8.698;2023-12-20T12:09:25;8.20;99.90
997;DHT22;487;50.126;8.698;2023-12-20T12:11:55;8.30;99.90
997;DHT22;487;50.126;8.698;2023-12-20T12:14:24;8.20;99.90
997;DHT22;487;50.126;8.698;2023-12-20T12:16:52;8.30;99.90
997;DHT22;487;50.126;8.698;2023-12-20T12:19:20;8.40;99.90
997;DHT22;487;50.126;8.698;2023-12-20T12:21:49;8.30;99.90
997;DHT22;487;50.126;8.698;2023-12-20T12:24:20;8.40;99.90
997;DHT22;487;50.126;8.698;2023-12-20T12:26:52;8.40;99.90
997;DHT22;487;50.126;8.698;2023-12-20T12:29:22;8.50;99.90
997;DHT22;487;50.126;8.698;2023-12-20T12:31:51;8.50;99.90
997;DHT22;487;50.126;8.698;2023-12-20T12:34:19;8.50;99.90
997;DHT22;487;50.126;8.698;2023-12-20T12:36:48;8.50;99.90
997;DHT22;487;50.126;8.698;2023-12-20T12:39:17;8.60;99.90
997;DHT22;487;50.126;8.698;2023-12-20T12:44:14;8.50;99.90
997;DHT22;487;50.126;8.698;2023-12-20T12:46:45;8.40;99.90
997;DHT22;487;50.126;8.698;2023-12-20T12:49:16;8.40;99.90
997;DHT22;487;50.126;8.698;2023-12-20T12:51:44;8.50;99.90
997;DHT22;487;50.126;8.698;2023-12-20T12:54:12;8.50;99.90
997;DHT22;487;50.126;8.698;2023-12-20T12:56:43;8.50;99.90
997;DHT22;487;50.126;8.698;2023-12-20T12:59:11;8.50;99.90
997;DHT22;487;50.126;8.698;2023-12-20T13:04:09;8.50;99.90
997;DHT22;487;50.126;8.698;2023-12-20T13:06:38;8.40;99.90
997;DHT22;487;50.126;8.698;2023-12-20T13:09:08;8.50;99.90
997;DHT22;487;50.126;8.698;2023-12-20T13:11:37;8.50;99.90
997;DHT22;487;50.126;8.698;2023-12-20T13:14:05;8.50;99.90
997;DHT22;487;50.126;8.698;2023-12-20T13:16:38;8.60;99.90
997;DHT22;487;50.126;8.698;2023-12-20T13:19:06;8.50;99.90
997;DHT22;487;50.126;8.698;2023-12-20T13:21:36;8.50;99.90
997;DHT22;487;50.126;8.698;2023-12-20T13:24:05;8.50;99.90
997;DHT22;487;50.126;8.698;2023-12-20T13:26:33;8.50;99.90
997;DHT22;487;50.126;8.698;2023-12-20T13:29:01;8.40;99.90
997;DHT22;487;50.126;8.698;2023-12-20T13:36:27;8.40;99.90
997;DHT22;487;50.126;8.698;2023-12-20T13:38:56;8.40;99.90
997;DHT22;487;50.126;8.698;2023-12-20T13:41:24;8.50;99.90
997;DHT22;487;50.126;8.698;2023-12-20T13:43:52;8.50;99.90
997;DHT22;487;50.126;8.698;2023-12-20T13:46:20;8.50;99.90
997;DHT22;487;50.126;8.698;2023-12-20T13:48:49;8.40;99.90
997;DHT22;487;50.126;8.698;2023-12-20T13:51:17;8.30;99.90
997;DHT22;487;50.126;8.698;2023-12-20T13:53:47;8.30;99.90
997;DHT22;487;50.126;8.698;2023-12-20T14:01:15;8.10;99.90
997;DHT22;487;50.126;8.698;2023-12-20T14:06:12;8.40;99.90
997;DHT22;487;50.126;8.698;2023-12-20T14:08:41;8.40;99.90
997;DHT22;487;50.126;8.698;2023-12-20T14:11:09;8.40;99.90
997;DHT22;487;50.126;8.698;2023-12-20T14:13:39;8.40;99.90
997;DHT22;487;50.126;8.698;2023-12-20T14:16:07;8.40;99.90
997;DHT22;487;50.126;8.698;2023-12-20T14:26:03;8.30;99.90
997;DHT22;487;50.126;8.698;2023-12-20T14:28:31;8.30;99.90
997;DHT22;487;50.126;8.698;2023-12-20T14:31:00;8.30;99.90
997;DHT22;487;50.126;8.698;2023-12-20T14:33:28;8.20;99.90
997;DHT22;487;50.126;8.698;2023-12-20T14:35:56;8.20;99.90
997;DHT22;487;50.126;8.698;2023-12-20T14:40:54;8.20;99.90
997;DHT22;487;50.126;8.698;2023-12-20T14:43:22;8.10;99.90
997;DHT22;487;50.126;8.698;2023-12-20T14:45:50;8.10;99.90
997;DHT22;487;50.126;8.698;2023-12-20T14:48:20;8.10;99.90
997;DHT22;487;50.126;8.698;2023-12-20T14:50:48;8.00;99.90
997;DHT22;487;50.126;8.698;2023-12-20T14:53:17;8.00;99.90
997;DHT22;487;50.126;8.698;2023-12-20T15:00:46;8.10;99.90
997;DHT22;487;50.126;8.698;2023-12-20T15:05:45;8.10;99.90
997;DHT22;487;50.126;8.698;2023-12-20T15:08:14;8.00;99.90
997;DHT22;487;50.126;8.698;2023-12-20T15:10:42;8.00;99.90
997;DHT22;487;50.126;8.698;2023-12-20T15:13:10;8.10;99.90
997;DHT22;487;50.126;8.698;2023-12-20T15:15:39;8.00;99.90
997;DHT22;487;50.126;8.698;2023-12-20T15:18:09;8.00;99.90
997;DHT22;487;50.126;8.698;2023-12-20T15:20:37;8.00;99.90
997;DHT22;487;50.126;8.698;2023-12-20T15:25:35;8.10;99.90
997;DHT22;487;50.126;8.698;2023-12-20T15:28:03;8.10;99.90
997;DHT22;487;50.126;8.698;2023-12-20T15:30:31;8.00;99.90
997;DHT22;487;50.126;8.698;2023-12-20T15:32:59;7.90;99.90
997;DHT22;487;50.126;8.698;2023-12-20T15:38:01;7.90;99.90
997;DHT22;487;50.126;8.698;2023-12-20T15:40:32;7.90;99.90
997;DHT22;487;50.126;8.698;2023-12-20T15:45:28;7.90;99.90
997;DHT22;487;50.126;8.698;2023-12-20T15:55:21;7.90;99.90
997;DHT22;487;50.126;8.698;2023-12-20T16:02:50;7.80;99.90
997;DHT22;487;50.126;8.698;2023-12-20T16:05:19;7.80;99.90
997;DHT22;487;50.126;8.698;2023-12-20T16:07:47;7.80;99.90
997;DHT22;487;50.126;8.698;2023-12-20T16:10:15;7.80;99.90
997;DHT22;487;50.126;8.698;2023-12-20T16:15:13;7.80;99.90
997;DHT22;487;50.126;8.698;2023-12-20T16:17:41;7.80;99.90
997;DHT22;487;50.126;8.698;2023-12-20T16:20:09;7.80;99.90
997;DHT22;487;50.126;8.698;2023-12-20T16:22:38;7.80;99.90
997;DHT22;487;50.126;8.698;2023-12-20T16:25:06;7.80;99.90
997;DHT22;487;50.126;8.698;2023-12-20T16:27:35;7.80;99.90
997;DHT22;487;50.126;8.698;2023-12-20T16:30:03;7.80;99.90
997;DHT22;487;50.126;8.698;2023-12-20T16:37:30;7.90;99.90
997;DHT22;487;50.126;8.698;2023-12-20T16:42:26;7.90;99.90
997;DHT22;487;50.126;8.698;2023-12-20T16:44:54;7.80;99.90
997;DHT22;487;50.126;8.698;2023-12-20T16:47:22;7.90;99.90
997;DHT22;487;50.126;8.698;2023-12-20T16:49:52;7.80;99.90
997;DHT22;487;50.126;8.698;2023-12-20T16:52:20;7.80;99.90
997;DHT22;487;50.126;8.698;2023-12-20T16:54:48;7.80;99.90
997;DHT22;487;50.126;8.698;2023-12-20T16:57:16;7.80;99.90
997;DHT22;487;50.126;8.698;2023-12-20T17:02:13;7.90;99.90
997;DHT22;487;50.126;8.698;2023-12-20T17:04:41;8.00;99.90
997;DHT22;487;50.126;8.698;2023-12-20T17:07:10;8.10;99.90
997;DHT22;487;50.126;8.698;2023-12-20T17:12:07;7.90;99.90
997;DHT22;487;50.126;8.698;2023-12-20T17:14:35;7.90;99.90
997;DHT22;487;50.126;8.698;2023-12-20T17:17:03;7.90;99.90
997;DHT22;487;50.126;8.698;2023-12-20T17:19:32;8.10;99.90
997;DHT22;487;50.126;8.698;2023-12-20T17:22:00;7.90;99.90
997;DHT22;487;50.126;8.698;2023-12-20T17:24:31;8.00;99.90
997;DHT22;487;50.126;8.698;2023-12-20T17:26:59;7.90;99.90
997;DHT22;487;50.126;8.698;2023-12-20T17:29:27;8.00;99.90
997;DHT22;487;50.126;8.698;2023-12-20T17:36:51;8.00;99.90
997;DHT22;487;50.126;8.698;2023-12-20T17:44:16;7.90;99.90
997;DHT22;487;50.126;8.698;2023-12-20T17:46:44;7.80;99.90
997;DHT22;487;50.126;8.698;2023-12-20T17:49:12;7.80;99.90
997;DHT22;487;50.126;8.698;2023-12-20T17:51:41;7.80;99.90
997;DHT22;487;50.126;8.698;2023-12-20T17:54:09;7.80;99.90
997;DHT22;487;50.126;8.698;2023-12-20T17:59:06;7.90;99.90
997;DHT22;487;50.126;8.698;2023-12-20T18:01:34;7.90;99.90
997;DHT22;487;50.126;8.698;2023-12-20T18:04:02;7.80;99.90
997;DHT22;487;50.126;8.698;2023-12-20T18:06:30;7.90;99.90
997;DHT22;487;50.126;8.698;2023-12-20T18:08:58;7.90;99.90
997;DHT22;487;50.126;8.698;2023-12-20T18:13:56;10.10;99.90
997;DHT22;487;50.126;8.698;2023-12-20T18:18:54;7.70;99.90
997;DHT22;487;50.126;8.698;2023-12-20T18:21:22;7.70;99.90
997;DHT22;487;50.126;8.698;2023-12-20T18:23:50;7.80;99.90
997;DHT22;487;50.126;8.698;2023-12-20T18:26:27;7.80;99.90
997;DHT22;487;50.126;8.698;2023-12-20T18:28:55;7.70;99.90
997;DHT22;487;50.126;8.698;2023-12-20T18:31:23;7.70;99.90
997;DHT22;487;50.126;8.698;2023-12-20T18:33:55;7.70;99.90
997;DHT22;487;50.126;8.698;2023-12-20T18:36:23;7.70;99.90
997;DHT22;487;50.126;8.698;2023-12-20T18:38:51;7.80;99.90
997;DHT22;487;50.126;8.698;2023-12-20T18:41:18;7.70;99.90
997;DHT22;487;50.126;8.698;2023-12-20T18:43:46;7.70;99.90
997;DHT22;487;50.126;8.698;2023-12-20T18:46:14;7.70;99.90
997;DHT22;487;50.126;8.698;2023-12-20T18:51:12;7.70;99.90
997;DHT22;487;50.126;8.698;2023-12-20T18:53:40;7.70;99.90
997;DHT22;487;50.126;8.698;2023-12-20T18:56:10;7.70;99.90
997;DHT22;487;50.126;8.698;2023-12-20T18:58:38;7.80;99.90
997;DHT22;487;50.126;8.698;2023-12-20T19:01:06;7.80;99.90
997;DHT22;487;50.126;8.698;2023-12-20T19:03:34;7.80;99.90
997;DHT22;487;50.126;8.698;2023-12-20T19:06:02;7.80;99.90
997;DHT22;487;50.126;8.698;2023-12-20T19:11:00;7.90;99.90
997;DHT22;487;50.126;8.698;2023-12-20T19:13:28;7.80;99.90
997;DHT22;487;50.126;8.698;2023-12-20T19:16:00;7.90;99.90
997;DHT22;487;50.126;8.698;2023-12-20T19:20:56;7.80;99.90
997;DHT22;487;50.126;8.698;2023-12-20T19:23:25;7.80;99.90
997;DHT22;487;50.126;8.698;2023-12-20T19:25:55;7.80;99.90
997;DHT22;487;50.126;8.698;2023-12-20T19:28:23;7.90;99.90
997;DHT22;487;50.126;8.698;2023-12-20T19:33:22;7.90;99.90
997;DHT22;487;50.126;8.698;2023-12-20T19:35:50;7.90;99.90
997;DHT22;487;50.126;8.698;2023-12-20T19:38:18;7.80;99.90
997;DHT22;487;50.126;8.698;2023-12-20T19:40:46;7.80;99.90
997;DHT22;487;50.126;8.698;2023-12-20T19:43:17;7.80;99.90
997;DHT22;487;50.126;8.698;2023-12-20T19:45:45;7.80;99.90
997;DHT22;487;50.126;8.698;2023-12-20T19:48:14;7.80;99.90
997;DHT22;487;50.126;8.698;2023-12-20T19:50:42;7.80;99.90
997;DHT22;487;50.126;8.698;2023-12-20T19:53:10;7.80;99.90
997;DHT22;487;50.126;8.698;2023-12-20T19:55:38;7.80;99.90
997;DHT22;487;50.126;8.698;2023-12-20T19:58:07;7.80;99.90
997;DHT22;487;50.126;8.698;2023-12-20T20:00:36;7.80;99.90
997;DHT22;487;50.126;8.698;2023-12-20T20:03:18;7.90;99.90
997;DHT22;487;50.126;8.698;2023-12-20T20:05:46;7.80;99.90
997;DHT22;487;50.126;8.698;2023-12-20T20:08:15;7.80;99.90
997;DHT22;487;50.126;8.698;2023-12-20T20:10:43;7.80;99.90
997;DHT22;487;50.126;8.698;2023-12-20T20:13:11;7.80;99.90
997;DHT22;487;50.126;8.698;2023-12-20T20:15:40;7.80;99.90
997;DHT22;487;50.126;8.698;2023-12-20T20:25:34;7.80;99.90
997;DHT22;487;50.126;8.698;2023-12-20T20:28:02;7.80;99.90
997;DHT22;487;50.126;8.698;2023-12-20T20:30:30;7.80;99.90
997;DHT22;487;50.126;8.698;2023-12-20T20:32:59;7.80;99.90
997;DHT22;487;50.126;8.698;2023-12-20T20:40:24;7.80;99.90
997;DHT22;487;50.126;8.698;2023-12-20T20:42:52;7.70;99.90
997;DHT22;487;50.126;8.698;2023-12-20T20:45:19;7.80;99.90
997;DHT22;487;50.126;8.698;2023-12-20T20:47:48;7.80;99.90
997;DHT22;487;50.126;8.698;2023-12-20T20:50:26;7.70;99.90
997;DHT22;487;50.126;8.698;2023-12-20T20:52:54;7.70;99.90
997;DHT22;487;50.126;8.698;2023-12-20T20:55:22;7.70;99.90
997;DHT22;487;50.126;8.698;2023-12-20T20:57:50;7.80;99.90
997;DHT22;487;50.126;8.698;2023-12-20T21:00:18;7.80;99.90
997;DHT22;487;50.126;8.698;2023-12-20T21:02:46;7.80;99.90
997;DHT22;487;50.126;8.698;2023-12-20T21:05:15;7.80;99.90
997;DHT22;487;50.126;8.698;2023-12-20T21:07:44;7.80;99.90
997;DHT22;487;50.126;8.698;2023-12-20T21:12:40;7.90;99.90